sensor_id;sensor_type;location;lat;lon;timestamp;P1;durP1;ratioP1;P2;durP2;ratioP2
75025;SDS011;63591;50.080;8.286;2023-02-18T00:00:14;4.30;;;1.93;;
75025;SDS011;63591;50.080;8.286;2023-02-18T00:02:42;3.90;;;1.85;;
75025;SDS011;63591;50.080;8.286;2023-02-18T00:05:08;4.03;;;1.90;;
75025;SDS011;63591;50.080;8.286;2023-02-18T00:07:34;4.53;;;1.85;;
75025;SDS011;63591;50.080;8.286;2023-02-18T00:10:00;3.97;;;1.80;;
75025;SDS011;63591;50.080;8.286;2023-02-18T00:12:26;4.25;;;1.95;;
75025;SDS011;63591;50.080;8.286;2023-02-18T00:14:51;4.10;;;1.70;;
75025;SDS011;63591;50.080;8.286;2023-02-18T00:17:16;3.97;;;1.70;;
75025;SDS011;63591;50.080;8.286;2023-02-18T00:19:41;4.03;;;1.73;;
75025;SDS011;63591;50.080;8.286;2023-02-18T00:22:07;3.93;;;1.90;;
75025;SDS011;63591;50.080;8.286;2023-02-18T00:24:32;4.00;;;1.90;;
75025;SDS011;63591;50.080;8.286;2023-02-18T00:26:57;4.20;;;1.90;;
75025;SDS011;63591;50.080;8.286;2023-02-18T00:29:23;3.93;;;1.90;;
75025;SDS011;63591;50.080;8.286;2023-02-18T00:31:48;4.07;;;1.87;;
75025;SDS011;63591;50.080;8.286;2023-02-18T00:34:13;3.83;;;1.67;;
75025;SDS011;63591;50.080;8.286;2023-02-18T00:36:39;3.60;;;1.55;;
75025;SDS011;63591;50.080;8.286;2023-02-18T00:39:06;3.97;;;1.77;;
75025;SDS011;63591;50.080;8.286;2023-02-18T00:41:33;3.50;;;1.60;;
75025;SDS011;63591;50.080;8.286;2023-02-18T00:43:59;4.13;;;1.80;;
75025;SDS011;63591;50.080;8.286;2023-02-18T00:46:25;4.18;;;1.88;;
75025;SDS011;63591;50.080;8.286;2023-02-18T00:48:51;3.83;;;1.50;;
75025;SDS011;63591;50.080;8.286;2023-02-18T00:51:16;4.03;;;1.77;;
75025;SDS011;63591;50.080;8.286;2023-02-18T00:53:42;4.45;;;1.58;;
75025;SDS011;63591;50.080;8.286;2023-02-18T00:56:07;3.83;;;1.67;;
75025;SDS011;63591;50.080;8.286;2023-02-18T00:58:33;4.30;;;1.73;;
75025;SDS011;63591;50.080;8.286;2023-02-18T01:00:59;3.60;;;1.60;;
75025;SDS011;63591;50.080;8.286;2023-02-18T01:03:25;3.53;;;1.53;;
75025;SDS011;63591;50.080;8.286;2023-02-18T01:05:50;3.30;;;1.40;;
75025;SDS011;63591;50.080;8.286;2023-02-18T01:08:17;3.40;;;1.40;;
75025;SDS011;63591;50.080;8.286;2023-02-18T01:10:44;3.80;;;1.48;;
75025;SDS011;63591;50.080;8.286;2023-02-18T01:13:11;4.00;;;1.50;;
75025;SDS011;63591;50.080;8.286;2023-02-18T01:15:37;4.00;;;1.50;;
75025;SDS011;63591;50.080;8.286;2023-02-18T01:18:03;4.60;;;1.40;;
75025;SDS011;63591;50.080;8.286;2023-02-18T01:20:29;3.30;;;1.30;;
75025;SDS011;63591;50.080;8.286;2023-02-18T01:22:54;4.17;;;1.50;;
75025;SDS011;63591;50.080;8.286;2023-02-18T01:25:20;3.38;;;1.15;;
75025;SDS011;63591;50.080;8.286;2023-02-18T01:27:45;3.53;;;1.30;;
75025;SDS011;63591;50.080;8.286;2023-02-18T01:30:12;3.43;;;1.30;;
75025;SDS011;63591;50.080;8.286;2023-02-18T01:32:39;3.35;;;1.20;;
75025;SDS011;63591;50.080;8.286;2023-02-18T01:35:05;3.38;;;1.20;;
75025;SDS011;63591;50.080;8.286;2023-02-18T01:37:31;3.10;;;1.07;;
75025;SDS011;63591;50.080;8.286;2023-02-18T01:39:57;3.35;;;1.00;;
75025;SDS011;63591;50.080;8.286;2023-02-18T01:42:24;3.00;;;1.02;;
75025;SDS011;63591;50.080;8.286;2023-02-18T01:44:51;3.42;;;0.93;;
75025;SDS011;63591;50.080;8.286;2023-02-18T01:47:16;2.90;;;0.93;;
75025;SDS011;63591;50.080;8.286;2023-02-18T01:49:43;3.03;;;0.88;;
75025;SDS011;63591;50.080;8.286;2023-02-18T01:52:16;3.67;;;1.30;;
75025;SDS011;63591;50.080;8.286;2023-02-18T01:54:46;3.20;;;0.90;;
75025;SDS011;63591;50.080;8.286;2023-02-18T01:57:26;2.80;;;0.90;;
75025;SDS011;63591;50.080;8.286;2023-02-18T01:59:55;2.70;;;0.80;;
75025;SDS011;63591;50.080;8.286;2023-02-18T02:02:24;2.70;;;0.80;;
75025;SDS011;63591;50.080;8.286;2023-02-18T02:04:52;2.97;;;0.80;;
75025;SDS011;63591;50.080;8.286;2023-02-18T02:07:18;2.55;;;0.70;;
75025;SDS011;63591;50.080;8.286;2023-02-18T02:09:46;2.60;;;0.70;;
75025;SDS011;63591;50.080;8.286;2023-02-18T02:28:03;2.60;;;0.80;;
75025;SDS011;63591;50.080;8.286;2023-02-18T02:30:58;2.70;;;0.80;;
75025;SDS011;63591;50.080;8.286;2023-02-18T02:36:27;2.30;;;0.70;;
75025;SDS011;63591;50.080;8.286;2023-02-18T02:44:43;2.60;;;0.75;;
75025;SDS011;63591;50.080;8.286;2023-02-18T02:47:26;2.50;;;0.60;;
75025;SDS011;63591;50.080;8.286;2023-02-18T02:50:06;3.00;;;0.90;;
75025;SDS011;63591;50.080;8.286;2023-02-18T02:52:38;2.50;;;0.70;;
75025;SDS011;63591;50.080;8.286;2023-02-18T02:55:08;2.45;;;0.60;;
75025;SDS011;63591;50.080;8.286;2023-02-18T03:00:03;2.50;;;0.60;;
75025;SDS011;63591;50.080;8.286;2023-02-18T03:02:55;3.13;;;0.70;;
75025;SDS011;63591;50.080;8.286;2023-02-18T03:18:44;3.15;;;0.60;;
75025;SDS011;63591;50.080;8.286;2023-02-18T03:21:22;2.35;;;0.57;;
75025;SDS011;63591;50.080;8.286;2023-02-18T03:26:21;2.47;;;0.70;;
75025;SDS011;63591;50.080;8.286;2023-02-18T03:28:50;2.42;;;0.60;;
75025;SDS011;63591;50.080;8.286;2023-02-18T03:31:20;3.08;;;0.80;;
75025;SDS011;63591;50.080;8.286;2023-02-18T03:33:58;2.35;;;0.60;;
75025;SDS011;63591;50.080;8.286;2023-02-18T03:36:28;2.83;;;0.65;;
75025;SDS011;63591;50.080;8.286;2023-02-18T03:38:55;2.58;;;0.70;;
75025;SDS011;63591;50.080;8.286;2023-02-18T03:41:25;2.60;;;0.70;;
75025;SDS011;63591;50.080;8.286;2023-02-18T03:43:58;2.78;;;0.70;;
75025;SDS011;63591;50.080;8.286;2023-02-18T03:46:31;2.58;;;0.70;;
75025;SDS011;63591;50.080;8.286;2023-02-18T03:48:58;2.60;;;0.80;;
75025;SDS011;63591;50.080;8.286;2023-02-18T03:51:23;2.58;;;0.80;;
75025;SDS011;63591;50.080;8.286;2023-02-18T03:53:48;2.50;;;0.70;;
75025;SDS011;63591;50.080;8.286;2023-02-18T03:56:14;2.60;;;0.80;;
75025;SDS011;63591;50.080;8.286;2023-02-18T03:58:39;2.50;;;0.60;;
75025;SDS011;63591;50.080;8.286;2023-02-18T04:01:05;2.60;;;0.70;;
75025;SDS011;63591;50.080;8.286;2023-02-18T04:03:30;2.72;;;0.70;;
75025;SDS011;63591;50.080;8.286;2023-02-18T04:05:56;2.53;;;0.70;;
75025;SDS011;63591;50.080;8.286;2023-02-18T04:08:22;2.42;;;0.70;;
75025;SDS011;63591;50.080;8.286;2023-02-18T04:10:48;2.45;;;0.60;;
75025;SDS011;63591;50.080;8.286;2023-02-18T04:13:13;2.80;;;0.80;;
75025;SDS011;63591;50.080;8.286;2023-02-18T04:15:38;3.03;;;0.80;;
75025;SDS011;63591;50.080;8.286;2023-02-18T04:18:04;2.77;;;0.60;;
75025;SDS011;63591;50.080;8.286;2023-02-18T04:20:29;2.80;;;0.77;;
75025;SDS011;63591;50.080;8.286;2023-02-18T04:22:55;3.20;;;0.80;;
75025;SDS011;63591;50.080;8.286;2023-02-18T04:25:20;2.83;;;0.70;;
75025;SDS011;63591;50.080;8.286;2023-02-18T04:27:45;2.40;;;0.67;;
75025;SDS011;63591;50.080;8.286;2023-02-18T04:30:11;2.63;;;0.70;;
75025;SDS011;63591;50.080;8.286;2023-02-18T04:32:37;2.90;;;0.80;;
75025;SDS011;63591;50.080;8.286;2023-02-18T04:35:02;2.53;;;0.70;;
75025;SDS011;63591;50.080;8.286;2023-02-18T04:37:28;2.90;;;0.70;;
75025;SDS011;63591;50.080;8.286;2023-02-18T04:39:53;2.50;;;0.60;;
75025;SDS011;63591;50.080;8.286;2023-02-18T04:42:18;2.85;;;0.70;;
75025;SDS011;63591;50.080;8.286;2023-02-18T04:44:44;2.23;;;0.63;;
75025;SDS011;63591;50.080;8.286;2023-02-18T04:47:09;2.70;;;0.80;;
75025;SDS011;63591;50.080;8.286;2023-02-18T04:49:34;3.17;;;0.70;;
75025;SDS011;63591;50.080;8.286;2023-02-18T04:52:00;3.13;;;1.00;;
75025;SDS011;63591;50.080;8.286;2023-02-18T04:54:25;2.90;;;0.80;;
75025;SDS011;63591;50.080;8.286;2023-02-18T04:56:50;3.27;;;0.90;;
75025;SDS011;63591;50.080;8.286;2023-02-18T04:59:16;2.97;;;0.80;;
75025;SDS011;63591;50.080;8.286;2023-02-18T05:01:41;3.05;;;0.80;;
75025;SDS011;63591;50.080;8.286;2023-02-18T05:04:07;2.70;;;0.80;;
75025;SDS011;63591;50.080;8.286;2023-02-18T05:06:32;2.60;;;0.70;;
75025;SDS011;63591;50.080;8.286;2023-02-18T05:08:57;2.60;;;0.73;;
75025;SDS011;63591;50.080;8.286;2023-02-18T05:11:23;2.70;;;0.83;;
75025;SDS011;63591;50.080;8.286;2023-02-18T05:13:48;2.73;;;0.90;;
75025;SDS011;63591;50.080;8.286;2023-02-18T05:16:13;2.60;;;0.80;;
75025;SDS011;63591;50.080;8.286;2023-02-18T05:18:39;2.60;;;0.80;;
75025;SDS011;63591;50.080;8.286;2023-02-18T05:21:05;2.83;;;0.70;;
75025;SDS011;63591;50.080;8.286;2023-02-18T05:23:30;3.03;;;0.80;;
75025;SDS011;63591;50.080;8.286;2023-02-18T05:25:56;3.28;;;0.80;;
75025;SDS011;63591;50.080;8.286;2023-02-18T05:28:21;2.70;;;0.70;;
75025;SDS011;63591;50.080;8.286;2023-02-18T05:30:46;2.70;;;0.90;;
75025;SDS011;63591;50.080;8.286;2023-02-18T05:33:12;3.60;;;0.90;;
75025;SDS011;63591;50.080;8.286;2023-02-18T05:35:37;2.93;;;0.70;;
75025;SDS011;63591;50.080;8.286;2023-02-18T05:38:02;2.50;;;0.70;;
75025;SDS011;63591;50.080;8.286;2023-02-18T05:40:28;2.50;;;0.70;;
75025;SDS011;63591;50.080;8.286;2023-02-18T05:42:53;2.57;;;0.70;;
75025;SDS011;63591;50.080;8.286;2023-02-18T05:45:18;3.43;;;0.80;;
75025;SDS011;63591;50.080;8.286;2023-02-18T05:47:43;2.80;;;0.70;;
75025;SDS011;63591;50.080;8.286;2023-02-18T05:50:09;2.53;;;0.77;;
75025;SDS011;63591;50.080;8.286;2023-02-18T05:52:34;3.70;;;0.73;;
75025;SDS011;63591;50.080;8.286;2023-02-18T05:55:00;2.70;;;0.80;;
75025;SDS011;63591;50.080;8.286;2023-02-18T05:57:25;3.20;;;0.70;;
75025;SDS011;63591;50.080;8.286;2023-02-18T05:59:50;2.70;;;0.70;;
75025;SDS011;63591;50.080;8.286;2023-02-18T06:02:15;2.60;;;0.70;;
75025;SDS011;63591;50.080;8.286;2023-02-18T06:04:41;2.53;;;0.68;;
75025;SDS011;63591;50.080;8.286;2023-02-18T06:07:06;2.50;;;0.67;;
75025;SDS011;63591;50.080;8.286;2023-02-18T06:09:32;3.33;;;0.70;;
75025;SDS011;63591;50.080;8.286;2023-02-18T06:11:57;2.20;;;0.50;;
75025;SDS011;63591;50.080;8.286;2023-02-18T06:14:22;2.70;;;0.60;;
75025;SDS011;63591;50.080;8.286;2023-02-18T06:16:48;2.80;;;0.80;;
75025;SDS011;63591;50.080;8.286;2023-02-18T06:19:13;2.50;;;0.70;;
75025;SDS011;63591;50.080;8.286;2023-02-18T06:21:38;2.63;;;0.73;;
75025;SDS011;63591;50.080;8.286;2023-02-18T06:24:03;2.35;;;0.70;;
75025;SDS011;63591;50.080;8.286;2023-02-18T06:26:29;2.50;;;0.70;;
75025;SDS011;63591;50.080;8.286;2023-02-18T06:28:54;2.70;;;0.80;;
75025;SDS011;63591;50.080;8.286;2023-02-18T06:31:20;2.60;;;0.70;;
75025;SDS011;63591;50.080;8.286;2023-02-18T06:33:45;3.00;;;1.00;;
75025;SDS011;63591;50.080;8.286;2023-02-18T06:36:11;2.37;;;0.70;;
75025;SDS011;63591;50.080;8.286;2023-02-18T06:38:37;2.67;;;0.88;;
75025;SDS011;63591;50.080;8.286;2023-02-18T06:41:04;3.65;;;1.00;;
75025;SDS011;63591;50.080;8.286;2023-02-18T06:43:30;2.97;;;0.90;;
75025;SDS011;63591;50.080;8.286;2023-02-18T06:45:56;2.55;;;0.80;;
75025;SDS011;63591;50.080;8.286;2023-02-18T06:48:21;3.23;;;1.10;;
75025;SDS011;63591;50.080;8.286;2023-02-18T06:50:47;3.30;;;0.90;;
75025;SDS011;63591;50.080;8.286;2023-02-18T06:53:13;3.37;;;1.10;;
75025;SDS011;63591;50.080;8.286;2023-02-18T06:55:40;3.25;;;1.15;;
75025;SDS011;63591;50.080;8.286;2023-02-18T06:58:06;3.20;;;1.20;;
75025;SDS011;63591;50.080;8.286;2023-02-18T07:00:31;2.70;;;0.90;;
75025;SDS011;63591;50.080;8.286;2023-02-18T07:02:57;3.40;;;1.10;;
75025;SDS011;63591;50.080;8.286;2023-02-18T07:05:22;3.33;;;1.20;;
75025;SDS011;63591;50.080;8.286;2023-02-18T07:07:47;3.20;;;1.40;;
75025;SDS011;63591;50.080;8.286;2023-02-18T07:10:13;3.67;;;1.30;;
75025;SDS011;63591;50.080;8.286;2023-02-18T07:12:38;4.28;;;1.48;;
75025;SDS011;63591;50.080;8.286;2023-02-18T07:15:04;3.50;;;1.33;;
75025;SDS011;63591;50.080;8.286;2023-02-18T07:17:29;3.60;;;1.50;;
75025;SDS011;63591;50.080;8.286;2023-02-18T07:19:54;3.80;;;1.53;;
75025;SDS011;63591;50.080;8.286;2023-02-18T07:22:20;3.67;;;1.60;;
75025;SDS011;63591;50.080;8.286;2023-02-18T07:24:49;4.28;;;1.65;;
75025;SDS011;63591;50.080;8.286;2023-02-18T07:27:18;3.88;;;1.65;;
75025;SDS011;63591;50.080;8.286;2023-02-18T07:29:44;4.30;;;1.73;;
75025;SDS011;63591;50.080;8.286;2023-02-18T07:32:11;3.67;;;1.70;;
75025;SDS011;63591;50.080;8.286;2023-02-18T07:34:37;4.75;;;1.65;;
75025;SDS011;63591;50.080;8.286;2023-02-18T07:37:02;4.83;;;1.70;;
75025;SDS011;63591;50.080;8.286;2023-02-18T07:39:33;3.80;;;1.60;;
75025;SDS011;63591;50.080;8.286;2023-02-18T07:42:04;4.22;;;1.40;;
75025;SDS011;63591;50.080;8.286;2023-02-18T07:44:29;5.43;;;1.80;;
75025;SDS011;63591;50.080;8.286;2023-02-18T07:46:54;3.67;;;1.70;;
75025;SDS011;63591;50.080;8.286;2023-02-18T07:49:20;3.83;;;1.70;;
75025;SDS011;63591;50.080;8.286;2023-02-18T07:51:46;4.00;;;1.70;;
75025;SDS011;63591;50.080;8.286;2023-02-18T07:54:12;3.97;;;1.35;;
75025;SDS011;63591;50.080;8.286;2023-02-18T07:56:37;4.20;;;1.70;;
75025;SDS011;63591;50.080;8.286;2023-02-18T07:59:03;3.50;;;1.57;;
75025;SDS011;63591;50.080;8.286;2023-02-18T08:01:28;4.17;;;1.60;;
75025;SDS011;63591;50.080;8.286;2023-02-18T08:03:53;3.47;;;1.47;;
75025;SDS011;63591;50.080;8.286;2023-02-18T08:06:20;4.13;;;1.73;;
75025;SDS011;63591;50.080;8.286;2023-02-18T08:08:49;4.72;;;1.95;;
75025;SDS011;63591;50.080;8.286;2023-02-18T08:11:14;4.13;;;1.90;;
75025;SDS011;63591;50.080;8.286;2023-02-18T08:13:40;4.23;;;1.70;;
75025;SDS011;63591;50.080;8.286;2023-02-18T08:16:05;4.20;;;1.87;;
75025;SDS011;63591;50.080;8.286;2023-02-18T08:18:30;6.25;;;2.20;;
75025;SDS011;63591;50.080;8.286;2023-02-18T08:20:56;3.80;;;1.80;;
75025;SDS011;63591;50.080;8.286;2023-02-18T08:23:22;5.00;;;2.10;;
75025;SDS011;63591;50.080;8.286;2023-02-18T08:25:49;4.85;;;2.00;;
75025;SDS011;63591;50.080;8.286;2023-02-18T08:28:17;5.50;;;1.77;;
75025;SDS011;63591;50.080;8.286;2023-02-18T08:30:44;5.22;;;2.00;;
75025;SDS011;63591;50.080;8.286;2023-02-18T08:33:13;3.80;;;1.88;;
75025;SDS011;63591;50.080;8.286;2023-02-18T08:35:38;3.83;;;1.80;;
75025;SDS011;63591;50.080;8.286;2023-02-18T08:38:04;4.07;;;1.85;;
75025;SDS011;63591;50.080;8.286;2023-02-18T08:40:29;4.73;;;2.00;;
75025;SDS011;63591;50.080;8.286;2023-02-18T08:42:55;4.17;;;1.73;;
75025;SDS011;63591;50.080;8.286;2023-02-18T08:45:20;4.77;;;1.87;;
75025;SDS011;63591;50.080;8.286;2023-02-18T08:47:45;4.37;;;1.93;;
75025;SDS011;63591;50.080;8.286;2023-02-18T08:50:10;3.90;;;1.90;;
75025;SDS011;63591;50.080;8.286;2023-02-18T08:52:36;4.67;;;2.00;;
75025;SDS011;63591;50.080;8.286;2023-02-18T08:55:02;4.10;;;1.80;;
75025;SDS011;63591;50.080;8.286;2023-02-18T08:57:28;4.53;;;1.85;;
75025;SDS011;63591;50.080;8.286;2023-02-18T08:59:54;4.20;;;1.90;;
75025;SDS011;63591;50.080;8.286;2023-02-18T09:02:19;4.00;;;1.80;;
75025;SDS011;63591;50.080;8.286;2023-02-18T09:04:44;3.83;;;1.80;;
75025;SDS011;63591;50.080;8.286;2023-02-18T09:07:10;3.47;;;1.55;;
75025;SDS011;63591;50.080;8.286;2023-02-18T09:09:35;3.93;;;1.60;;
75025;SDS011;63591;50.080;8.286;2023-02-18T09:12:01;4.00;;;1.53;;
75025;SDS011;63591;50.080;8.286;2023-02-18T09:14:26;4.67;;;1.67;;
75025;SDS011;63591;50.080;8.286;2023-02-18T09:16:51;3.80;;;1.70;;
75025;SDS011;63591;50.080;8.286;2023-02-18T09:19:17;3.70;;;1.40;;
75025;SDS011;63591;50.080;8.286;2023-02-18T09:21:42;3.63;;;1.40;;
75025;SDS011;63591;50.080;8.286;2023-02-18T09:24:08;4.40;;;1.47;;
75025;SDS011;63591;50.080;8.286;2023-02-18T09:26:34;3.83;;;1.50;;
75025;SDS011;63591;50.080;8.286;2023-02-18T09:28:59;3.57;;;1.40;;
75025;SDS011;63591;50.080;8.286;2023-02-18T09:31:25;3.87;;;1.60;;
75025;SDS011;63591;50.080;8.286;2023-02-18T09:33:52;3.53;;;1.25;;
75025;SDS011;63591;50.080;8.286;2023-02-18T09:36:20;3.08;;;1.10;;
75025;SDS011;63591;50.080;8.286;2023-02-18T09:38:46;3.20;;;1.23;;
75025;SDS011;63591;50.080;8.286;2023-02-18T09:41:26;3.55;;;1.40;;
75025;SDS011;63591;50.080;8.286;2023-02-18T09:43:53;3.20;;;1.20;;
75025;SDS011;63591;50.080;8.286;2023-02-18T09:48:57;3.40;;;1.15;;
75025;SDS011;63591;50.080;8.286;2023-02-18T09:51:26;3.17;;;1.08;;
75025;SDS011;63591;50.080;8.286;2023-02-18T09:53:51;3.37;;;0.93;;
75025;SDS011;63591;50.080;8.286;2023-02-18T09:56:22;3.10;;;1.10;;
75025;SDS011;63591;50.080;8.286;2023-02-18T09:58:57;3.90;;;0.95;;
75025;SDS011;63591;50.080;8.286;2023-02-18T10:01:31;3.40;;;0.90;;
75025;SDS011;63591;50.080;8.286;2023-02-18T10:04:01;3.47;;;0.80;;
75025;SDS011;63591;50.080;8.286;2023-02-18T10:06:32;3.65;;;1.00;;
75025;SDS011;63591;50.080;8.286;2023-02-18T10:09:00;2.83;;;1.00;;
75025;SDS011;63591;50.080;8.286;2023-02-18T10:14:01;3.03;;;1.02;;
75025;SDS011;63591;50.080;8.286;2023-02-18T10:16:28;2.60;;;0.70;;
75025;SDS011;63591;50.080;8.286;2023-02-18T10:18:58;2.80;;;0.80;;
75025;SDS011;63591;50.080;8.286;2023-02-18T10:21:28;3.03;;;0.90;;
75025;SDS011;63591;50.080;8.286;2023-02-18T10:26:56;2.53;;;0.70;;
75025;SDS011;63591;50.080;8.286;2023-02-18T10:29:22;3.37;;;0.70;;
75025;SDS011;63591;50.080;8.286;2023-02-18T10:34:41;3.08;;;0.75;;
75025;SDS011;63591;50.080;8.286;2023-02-18T10:39:41;2.58;;;0.80;;
75025;SDS011;63591;50.080;8.286;2023-02-18T10:42:38;4.07;;;0.83;;
75025;SDS011;63591;50.080;8.286;2023-02-18T10:45:08;2.60;;;0.70;;
75025;SDS011;63591;50.080;8.286;2023-02-18T10:47:59;3.58;;;0.70;;
75025;SDS011;63591;50.080;8.286;2023-02-18T10:50:43;5.70;;;0.80;;
75025;SDS011;63591;50.080;8.286;2023-02-18T10:53:11;2.80;;;0.70;;
75025;SDS011;63591;50.080;8.286;2023-02-18T10:55:41;3.50;;;0.70;;
75025;SDS011;63591;50.080;8.286;2023-02-18T11:00:59;2.92;;;0.70;;
75025;SDS011;63591;50.080;8.286;2023-02-18T11:03:42;2.92;;;0.60;;
75025;SDS011;63591;50.080;8.286;2023-02-18T11:06:19;2.95;;;0.80;;
75025;SDS011;63591;50.080;8.286;2023-02-18T11:08:49;2.50;;;0.60;;
75025;SDS011;63591;50.080;8.286;2023-02-18T11:11:20;2.30;;;0.60;;
75025;SDS011;63591;50.080;8.286;2023-02-18T11:13:53;2.80;;;0.70;;
75025;SDS011;63591;50.080;8.286;2023-02-18T11:16:20;2.75;;;0.70;;
75025;SDS011;63591;50.080;8.286;2023-02-18T11:18:47;3.50;;;0.80;;
75025;SDS011;63591;50.080;8.286;2023-02-18T11:23:51;3.30;;;0.70;;
75025;SDS011;63591;50.080;8.286;2023-02-18T11:26:26;3.08;;;0.75;;
75025;SDS011;63591;50.080;8.286;2023-02-18T11:28:57;4.07;;;0.70;;
75025;SDS011;63591;50.080;8.286;2023-02-18T11:31:30;3.85;;;0.70;;
75025;SDS011;63591;50.080;8.286;2023-02-18T11:34:03;2.97;;;0.80;;
75025;SDS011;63591;50.080;8.286;2023-02-18T11:36:30;2.72;;;0.70;;
75025;SDS011;63591;50.080;8.286;2023-02-18T11:39:00;3.03;;;0.80;;
75025;SDS011;63591;50.080;8.286;2023-02-18T11:41:35;3.33;;;0.80;;
75025;SDS011;63591;50.080;8.286;2023-02-18T11:44:04;4.20;;;0.90;;
75025;SDS011;63591;50.080;8.286;2023-02-18T11:46:44;4.05;;;0.80;;
75025;SDS011;63591;50.080;8.286;2023-02-18T11:49:21;4.20;;;0.90;;
75025;SDS011;63591;50.080;8.286;2023-02-18T11:51:48;2.90;;;1.00;;
75025;SDS011;63591;50.080;8.286;2023-02-18T11:54:21;3.17;;;0.90;;
75025;SDS011;63591;50.080;8.286;2023-02-18T11:57:04;3.33;;;0.82;;
75025;SDS011;63591;50.080;8.286;2023-02-18T11:59:32;3.15;;;0.90;;
75025;SDS011;63591;50.080;8.286;2023-02-18T12:04:28;3.33;;;0.98;;
75025;SDS011;63591;50.080;8.286;2023-02-18T12:12:23;4.65;;;1.23;;
75025;SDS011;63591;50.080;8.286;2023-02-18T12:14:52;2.80;;;0.90;;
75025;SDS011;63591;50.080;8.286;2023-02-18T12:22:44;3.25;;;1.00;;
75025;SDS011;63591;50.080;8.286;2023-02-18T12:28:09;5.20;;;1.10;;
75025;SDS011;63591;50.080;8.286;2023-02-18T12:36:49;3.15;;;1.10;;
75025;SDS011;63591;50.080;8.286;2023-02-18T13:14:41;3.83;;;1.00;;
75025;SDS011;63591;50.080;8.286;2023-02-18T13:17:13;3.42;;;1.00;;
75025;SDS011;63591;50.080;8.286;2023-02-18T13:19:45;3.28;;;1.05;;
75025;SDS011;63591;50.080;8.286;2023-02-18T13:22:15;3.50;;;1.00;;
75025;SDS011;63591;50.080;8.286;2023-02-18T13:24:44;3.60;;;1.10;;
75025;SDS011;63591;50.080;8.286;2023-02-18T13:32:30;5.13;;;1.38;;
75025;SDS011;63591;50.080;8.286;2023-02-18T13:37:45;3.17;;;1.30;;
75025;SDS011;63591;50.080;8.286;2023-02-18T13:40:24;4.63;;;1.40;;
75025;SDS011;63591;50.080;8.286;2023-02-18T13:42:54;4.10;;;1.17;;
75025;SDS011;63591;50.080;8.286;2023-02-18T13:48:42;3.53;;;1.40;;
75025;SDS011;63591;50.080;8.286;2023-02-18T13:51:17;3.80;;;1.40;;
75025;SDS011;63591;50.080;8.286;2023-02-18T13:53:53;6.50;;;1.30;;
75025;SDS011;63591;50.080;8.286;2023-02-18T13:56:26;4.57;;;1.30;;
75025;SDS011;63591;50.080;8.286;2023-02-18T13:58:55;3.20;;;1.05;;
75025;SDS011;63591;50.080;8.286;2023-02-18T14:01:39;4.25;;;1.30;;
75025;SDS011;63591;50.080;8.286;2023-02-18T14:09:57;3.33;;;1.35;;
75025;SDS011;63591;50.080;8.286;2023-02-18T14:15:49;4.63;;;1.23;;
75025;SDS011;63591;50.080;8.286;2023-02-18T14:18:25;3.85;;;1.10;;
75025;SDS011;63591;50.080;8.286;2023-02-18T14:21:02;4.23;;;1.30;;
75025;SDS011;63591;50.080;8.286;2023-02-18T14:23:56;3.97;;;1.25;;
75025;SDS011;63591;50.080;8.286;2023-02-18T14:26:24;4.10;;;1.20;;
75025;SDS011;63591;50.080;8.286;2023-02-18T14:29:16;3.78;;;1.10;;
75025;SDS011;63591;50.080;8.286;2023-02-18T14:31:44;3.63;;;1.10;;
75025;SDS011;63591;50.080;8.286;2023-02-18T14:51:05;3.30;;;1.05;;
75025;SDS011;63591;50.080;8.286;2023-02-18T14:53:31;3.85;;;1.27;;
75025;SDS011;63591;50.080;8.286;2023-02-18T14:56:04;3.67;;;1.20;;
75025;SDS011;63591;50.080;8.286;2023-02-18T14:58:36;3.85;;;1.15;;
75025;SDS011;63591;50.080;8.286;2023-02-18T15:01:28;3.50;;;1.15;;
75025;SDS011;63591;50.080;8.286;2023-02-18T15:03:55;3.35;;;1.20;;
75025;SDS011;63591;50.080;8.286;2023-02-18T15:08:52;3.47;;;1.05;;
75025;SDS011;63591;50.080;8.286;2023-02-18T15:11:18;3.33;;;0.97;;
75025;SDS011;63591;50.080;8.286;2023-02-18T15:13:46;3.17;;;0.90;;
75025;SDS011;63591;50.080;8.286;2023-02-18T15:16:26;3.70;;;1.10;;
75025;SDS011;63591;50.080;8.286;2023-02-18T15:19:04;3.72;;;0.98;;
75025;SDS011;63591;50.080;8.286;2023-02-18T15:21:34;3.03;;;0.95;;
75025;SDS011;63591;50.080;8.286;2023-02-18T15:24:05;2.90;;;1.00;;
75025;SDS011;63591;50.080;8.286;2023-02-18T15:26:49;3.25;;;0.93;;
75025;SDS011;63591;50.080;8.286;2023-02-18T15:29:20;2.90;;;0.83;;
75025;SDS011;63591;50.080;8.286;2023-02-18T15:31:48;3.33;;;0.93;;
75025;SDS011;63591;50.080;8.286;2023-02-18T15:34:34;3.90;;;1.20;;
75025;SDS011;63591;50.080;8.286;2023-02-18T15:37:02;3.25;;;0.88;;
75025;SDS011;63591;50.080;8.286;2023-02-18T15:39:29;2.90;;;1.00;;
75025;SDS011;63591;50.080;8.286;2023-02-18T15:41:58;3.10;;;0.97;;
75025;SDS011;63591;50.080;8.286;2023-02-18T15:44:28;2.88;;;0.90;;
75025;SDS011;63591;50.080;8.286;2023-02-18T15:46:58;2.78;;;0.80;;
75025;SDS011;63591;50.080;8.286;2023-02-18T15:49:31;4.38;;;1.10;;
75025;SDS011;63591;50.080;8.286;2023-02-18T15:51:57;3.60;;;0.90;;
75025;SDS011;63591;50.080;8.286;2023-02-18T15:54:24;3.20;;;0.90;;
75025;SDS011;63591;50.080;8.286;2023-02-18T15:56:52;3.60;;;1.05;;
75025;SDS011;63591;50.080;8.286;2023-02-18T15:59:25;3.28;;;1.10;;
75025;SDS011;63591;50.080;8.286;2023-02-18T16:04:53;2.92;;;0.90;;
75025;SDS011;63591;50.080;8.286;2023-02-18T16:07:27;3.00;;;0.95;;
75025;SDS011;63591;50.080;8.286;2023-02-18T16:10:17;2.85;;;1.10;;
75025;SDS011;63591;50.080;8.286;2023-02-18T16:12:48;3.28;;;0.90;;
75025;SDS011;63591;50.080;8.286;2023-02-18T16:15:59;3.00;;;0.90;;
75025;SDS011;63591;50.080;8.286;2023-02-18T16:21:22;3.17;;;1.05;;
75025;SDS011;63591;50.080;8.286;2023-02-18T16:23:43;3.20;;;1.00;;
75025;SDS011;63591;50.080;8.286;2023-02-18T16:26:28;2.70;;;0.80;;
75025;SDS011;63591;50.080;8.286;2023-02-18T16:29:14;3.00;;;0.90;;
75025;SDS011;63591;50.080;8.286;2023-02-18T16:31:45;3.30;;;1.08;;
75025;SDS011;63591;50.080;8.286;2023-02-18T16:34:10;3.13;;;1.00;;
75025;SDS011;63591;50.080;8.286;2023-02-18T16:36:36;3.20;;;0.90;;
75025;SDS011;63591;50.080;8.286;2023-02-18T16:39:01;2.83;;;0.80;;
75025;SDS011;63591;50.080;8.286;2023-02-18T16:41:27;3.10;;;0.80;;
75025;SDS011;63591;50.080;8.286;2023-02-18T16:43:53;3.50;;;0.93;;
75025;SDS011;63591;50.080;8.286;2023-02-18T16:46:20;3.23;;;1.00;;
75025;SDS011;63591;50.080;8.286;2023-02-18T16:48:50;2.95;;;0.90;;
75025;SDS011;63591;50.080;8.286;2023-02-18T16:51:23;2.70;;;0.88;;
75025;SDS011;63591;50.080;8.286;2023-02-18T16:53:56;3.97;;;1.00;;
75025;SDS011;63591;50.080;8.286;2023-02-18T16:56:23;2.63;;;0.80;;
75025;SDS011;63591;50.080;8.286;2023-02-18T16:58:50;3.20;;;1.00;;
75025;SDS011;63591;50.080;8.286;2023-02-18T17:01:26;2.97;;;0.90;;
75025;SDS011;63591;50.080;8.286;2023-02-18T17:03:53;3.33;;;1.20;;
75025;SDS011;63591;50.080;8.286;2023-02-18T17:06:20;3.53;;;0.90;;
75025;SDS011;63591;50.080;8.286;2023-02-18T17:08:46;2.63;;;0.90;;
75025;SDS011;63591;50.080;8.286;2023-02-18T17:11:19;3.17;;;1.00;;
75025;SDS011;63591;50.080;8.286;2023-02-18T17:13:47;3.47;;;1.10;;
75025;SDS011;63591;50.080;8.286;2023-02-18T17:16:13;3.20;;;1.20;;
75025;SDS011;63591;50.080;8.286;2023-02-18T17:18:38;3.27;;;1.00;;
75025;SDS011;63591;50.080;8.286;2023-02-18T17:21:04;3.88;;;1.10;;
75025;SDS011;63591;50.080;8.286;2023-02-18T17:23:30;4.33;;;1.10;;
75025;SDS011;63591;50.080;8.286;2023-02-18T17:25:55;2.90;;;1.00;;
75025;SDS011;63591;50.080;8.286;2023-02-18T17:28:20;3.47;;;1.20;;
75025;SDS011;63591;50.080;8.286;2023-02-18T17:30:47;2.90;;;1.02;;
75025;SDS011;63591;50.080;8.286;2023-02-18T17:33:17;2.90;;;1.00;;
75025;SDS011;63591;50.080;8.286;2023-02-18T17:35:43;3.45;;;1.00;;
75025;SDS011;63591;50.080;8.286;2023-02-18T17:38:10;3.28;;;1.10;;
75025;SDS011;63591;50.080;8.286;2023-02-18T17:40:36;2.90;;;1.00;;